createdAt,value
2023-04-10T00:00:05.303Z,8.70
2023-04-10T00:02:33.602Z,8.70
2023-04-10T00:05:01.567Z,8.70
2023-04-10T00:07:29.404Z,8.70
2023-04-10T00:09:57.006Z,8.70
2023-04-10T00:12:25.178Z,8.70
2023-04-10T00:14:52.703Z,8.60
2023-04-10T00:17:20.183Z,8.70
2023-04-10T00:19:47.725Z,8.60
2023-04-10T00:22:15.414Z,8.60
2023-04-10T00:24:42.902Z,8.60
2023-04-10T00:27:10.441Z,8.50
2023-04-10T00:29:38.268Z,8.50
2023-04-10T00:32:05.815Z,8.50
2023-04-10T00:34:33.412Z,8.50
2023-04-10T00:37:01.120Z,8.50
2023-04-10T00:39:28.639Z,8.50
2023-04-10T00:41:57.562Z,8.40
2023-04-10T00:44:25.213Z,8.40
2023-04-10T00:46:52.852Z,8.40
2023-04-10T00:49:21.802Z,8.40
2023-04-10T00:51:49.631Z,8.40
2023-04-10T00:54:17.175Z,8.40
2023-04-10T00:56:46.829Z,8.40
2023-04-10T00:59:14.499Z,8.30
2023-04-10T01:01:43.355Z,8.40
2023-04-10T01:04:11.623Z,8.40
2023-04-10T01:07:04.099Z,8.30
2023-04-10T01:10:00.209Z,8.30
2023-04-10T01:12:54.805Z,8.30
2023-04-10T01:15:30.684Z,8.20
2023-04-10T01:18:51.017Z,8.20
2023-04-10T01:21:21.097Z,8.10
2023-04-10T01:24:33.299Z,8.10
2023-04-10T01:27:29.460Z,8.20
2023-04-10T01:30:01.216Z,8.20
2023-04-10T01:32:30.856Z,8.20
2023-04-10T01:35:01.144Z,8.20
2023-04-10T01:37:31.890Z,8.20
2023-04-10T01:40:03.326Z,8.20
2023-04-10T01:42:38.740Z,8.20
2023-04-10T01:45:12.261Z,8.10
2023-04-10T01:47:40.157Z,8.10
2023-04-10T01:50:09.760Z,8.10
2023-04-10T01:52:38.081Z,8.10
2023-04-10T01:55:15.789Z,8.10
2023-04-10T01:57:49.236Z,8.10
2023-04-10T02:00:17.998Z,8.10
2023-04-10T02:02:46.736Z,8.10
2023-04-10T02:05:16.406Z,8.10
2023-04-10T02:07:57.501Z,8.10
2023-04-10T02:10:43.662Z,8.10
2023-04-10T02:13:14.533Z,8.00
2023-04-10T02:15:46.501Z,8.00
2023-04-10T02:18:18.609Z,7.90
2023-04-10T02:20:46.354Z,7.80
2023-04-10T02:23:17.352Z,7.70
2023-04-10T02:25:45.144Z,7.70
2023-04-10T02:28:12.714Z,7.60
2023-04-10T02:30:40.303Z,7.60
2023-04-10T02:33:07.817Z,7.60
2023-04-10T02:35:35.954Z,7.60
2023-04-10T02:38:04.265Z,7.60
2023-04-10T02:40:35.758Z,7.50
2023-04-10T02:43:29.628Z,7.50
2023-04-10T02:45:57.666Z,7.50
2023-04-10T02:48:27.682Z,7.50
2023-04-10T02:50:59.939Z,7.50
2023-04-10T02:53:29.100Z,7.50
2023-04-10T02:56:00.442Z,7.40
2023-04-10T02:58:30.373Z,7.30
2023-04-10T03:00:58.414Z,7.20
2023-04-10T03:03:46.183Z,7.00
2023-04-10T03:06:19.758Z,6.90
2023-04-10T03:08:47.945Z,6.80
2023-04-10T03:11:15.486Z,6.70
2023-04-10T03:13:42.974Z,6.60
2023-04-10T03:16:10.758Z,6.60
2023-04-10T03:18:38.603Z,6.60
2023-04-10T03:21:06.511Z,6.70
2023-04-10T03:23:34.069Z,6.80
2023-04-10T03:26:01.806Z,6.90
2023-04-10T03:28:32.827Z,7.00
2023-04-10T03:31:01.913Z,7.10
2023-04-10T03:33:32.997Z,7.20
2023-04-10T03:36:01.248Z,7.30
2023-04-10T03:38:28.815Z,7.30
2023-04-10T03:40:56.725Z,7.30
2023-04-10T03:43:26.365Z,7.30
2023-04-10T03:45:53.940Z,7.30
2023-04-10T03:48:22.591Z,7.30
2023-04-10T03:50:50.091Z,7.30
2023-04-10T03:53:17.750Z,7.30
2023-04-10T03:55:46.402Z,7.20
2023-04-10T03:58:14.017Z,7.20
2023-04-10T04:00:41.718Z,7.20
2023-04-10T04:03:20.803Z,7.20
2023-04-10T04:06:06.872Z,7.20
2023-04-10T04:08:41.674Z,7.20
2023-04-10T04:11:09.231Z,7.30
2023-04-10T04:13:47.695Z,7.30
2023-04-10T04:16:35.708Z,7.30
2023-04-10T04:19:29.210Z,7.30
2023-04-10T04:22:14.217Z,7.40
2023-04-10T04:25:00.382Z,7.40
2023-04-10T04:28:00.082Z,7.30
2023-04-10T04:30:56.177Z,7.20
2023-04-10T04:33:37.168Z,7.30
2023-04-10T04:36:24.941Z,7.30
2023-04-10T04:39:08.235Z,7.30
2023-04-10T04:41:50.500Z,7.40
2023-04-10T04:44:53.052Z,7.40
2023-04-10T04:47:43.806Z,7.30
2023-04-10T04:50:21.720Z,7.30
2023-04-10T04:53:24.635Z,7.30
2023-04-10T04:56:12.524Z,7.40
2023-04-10T04:59:00.085Z,7.40
2023-04-10T05:01:41.337Z,7.40
2023-04-10T05:04:20.593Z,7.40
2023-04-10T05:06:57.411Z,7.40
2023-04-10T05:10:00.452Z,7.40
2023-04-10T05:12:46.620Z,7.40
2023-04-10T05:15:25.586Z,7.40
2023-04-10T05:18:14.426Z,7.40
2023-04-10T05:20:56.302Z,7.40
2023-04-10T05:23:40.848Z,7.40
2023-04-10T05:26:30.559Z,7.40
2023-04-10T05:29:12.436Z,7.40
2023-04-10T05:32:07.879Z,7.40
2023-04-10T05:34:58.597Z,7.40
2023-04-10T05:37:43.562Z,7.30
2023-04-10T05:40:32.472Z,7.30
2023-04-10T05:43:21.977Z,7.30
2023-04-10T05:46:12.442Z,7.40
2023-04-10T05:48:55.600Z,7.30
2023-04-10T05:51:35.019Z,7.40
2023-04-10T05:54:18.324Z,7.40
2023-04-10T05:57:04.694Z,7.40
2023-04-10T06:00:08.159Z,7.40
2023-04-10T06:02:41.475Z,7.40
2023-04-10T06:05:16.192Z,7.40
2023-04-10T06:07:44.224Z,7.40
2023-04-10T06:10:11.710Z,7.40
2023-04-10T06:12:39.438Z,7.40
2023-04-10T06:15:10.741Z,7.40
2023-04-10T06:17:43.635Z,7.40
2023-04-10T06:20:11.755Z,7.30
2023-04-10T06:22:39.229Z,7.30
2023-04-10T06:25:07.289Z,7.30
2023-04-10T06:27:38.214Z,7.30
2023-04-10T06:30:11.136Z,7.30
2023-04-10T06:32:38.734Z,7.30
2023-04-10T06:35:07.259Z,7.40
2023-04-10T06:37:34.898Z,7.40
2023-04-10T06:40:11.228Z,7.40
2023-04-10T06:42:38.787Z,7.40
2023-04-10T06:45:14.666Z,7.50
2023-04-10T06:47:42.233Z,7.50
2023-04-10T06:50:10.456Z,7.60
2023-04-10T06:52:38.075Z,7.70
2023-04-10T06:55:06.413Z,7.70
2023-04-10T06:57:33.904Z,7.80
2023-04-10T07:00:01.470Z,7.80
2023-04-10T07:02:29.129Z,7.90
2023-04-10T07:04:56.913Z,8.00
2023-04-10T07:07:24.515Z,8.10
2023-04-10T07:09:52.072Z,8.10
2023-04-10T07:12:19.584Z,8.20
2023-04-10T07:14:47.087Z,8.20
2023-04-10T07:17:14.545Z,8.30
2023-04-10T07:19:42.037Z,8.30
2023-04-10T07:22:09.558Z,8.40
2023-04-10T07:24:37.373Z,8.50
2023-04-10T07:27:04.903Z,8.50
2023-04-10T07:29:32.398Z,8.50
2023-04-10T07:32:00.139Z,8.60
2023-04-10T07:34:27.773Z,8.70
2023-04-10T07:36:55.289Z,8.70
2023-04-10T07:39:22.789Z,8.80
2023-04-10T07:41:50.453Z,8.90
2023-04-10T07:44:18.530Z,8.90
2023-04-10T07:46:46.013Z,9.00
2023-04-10T07:49:13.541Z,9.10
2023-04-10T07:51:41.053Z,9.20
2023-04-10T07:54:08.559Z,9.30
2023-04-10T07:56:36.229Z,9.40
2023-04-10T07:59:04.159Z,9.40
2023-04-10T08:01:31.786Z,9.50
2023-04-10T08:04:00.019Z,9.60
2023-04-10T08:06:28.606Z,9.60
2023-04-10T08:08:56.411Z,9.70
2023-04-10T08:11:30.271Z,9.80
2023-04-10T08:14:03.670Z,9.90
2023-04-10T08:16:36.277Z,10.00
2023-04-10T08:19:03.872Z,10.10
2023-04-10T08:21:32.013Z,10.10
2023-04-10T08:24:02.642Z,10.20
2023-04-10T08:26:30.335Z,10.30
2023-04-10T08:28:59.808Z,10.30
2023-04-10T08:31:28.923Z,10.40
2023-04-10T08:33:57.285Z,10.40
2023-04-10T08:36:27.088Z,10.50
2023-04-10T08:38:54.662Z,10.60
2023-04-10T08:41:22.345Z,10.60
2023-04-10T08:43:50.930Z,10.70
2023-04-10T08:46:18.590Z,10.70
2023-04-10T08:48:53.103Z,10.80
2023-04-10T08:51:26.132Z,10.80
2023-04-10T08:54:10.387Z,10.90
2023-04-10T08:56:40.982Z,10.90
2023-04-10T08:59:09.194Z,11.00
2023-04-10T09:01:37.103Z,11.10
2023-04-10T09:04:05.488Z,11.20
2023-04-10T09:06:33.435Z,11.20
2023-04-10T09:11:56.920Z,11.30
2023-04-10T09:14:33.664Z,11.40
2023-04-10T09:17:21.905Z,11.40
2023-04-10T09:19:53.198Z,11.40
2023-04-10T09:22:35.293Z,11.50
2023-04-10T09:25:04.765Z,11.60
2023-04-10T09:27:37.258Z,11.60
2023-04-10T09:30:07.013Z,11.70
2023-04-10T09:32:44.392Z,11.80
2023-04-10T09:35:14.377Z,11.90
2023-04-10T09:37:45.020Z,11.90
2023-04-10T09:40:25.043Z,12.00
2023-04-10T09:42:55.832Z,12.10
2023-04-10T09:45:23.440Z,12.20
2023-04-10T09:48:08.399Z,12.20
2023-04-10T09:50:43.566Z,12.30
2023-04-10T09:53:19.448Z,12.40
2023-04-10T09:55:49.305Z,12.40
2023-04-10T09:58:17.922Z,12.50
2023-04-10T10:00:47.996Z,12.60
2023-04-10T10:03:21.289Z,12.70
2023-04-10T10:05:51.938Z,12.80
2023-04-10T10:08:20.015Z,12.90
2023-04-10T10:10:57.499Z,12.90
2023-04-10T10:13:30.305Z,13.00
2023-04-10T10:16:27.805Z,13.10
2023-04-10T10:19:01.994Z,13.10
2023-04-10T10:21:30.569Z,13.30
2023-04-10T10:24:01.548Z,13.40
2023-04-10T10:26:30.443Z,13.50
2023-04-10T10:28:59.165Z,13.60
2023-04-10T10:31:32.599Z,13.70
2023-04-10T10:34:04.783Z,13.80
2023-04-10T10:36:32.358Z,13.90
2023-04-10T10:39:33.195Z,14.00
2023-04-10T10:42:32.751Z,14.10
2023-04-10T10:45:09.579Z,14.20
2023-04-10T10:47:45.775Z,14.30
2023-04-10T10:50:13.339Z,14.30
2023-04-10T10:52:46.678Z,14.30
2023-04-10T10:55:25.969Z,14.30
2023-04-10T10:57:56.002Z,14.30
2023-04-10T11:00:25.863Z,14.30
2023-04-10T11:03:08.511Z,14.30
2023-04-10T11:05:56.993Z,14.30
2023-04-10T11:08:33.658Z,14.30
2023-04-10T11:11:08.294Z,14.30
2023-04-10T11:13:41.431Z,14.40
2023-04-10T11:16:10.739Z,14.40
2023-04-10T11:18:55.895Z,14.40
2023-04-10T11:21:31.472Z,14.50
2023-04-10T11:23:59.226Z,14.60
2023-04-10T11:26:39.134Z,14.70
2023-04-10T11:29:17.127Z,14.80
2023-04-10T11:31:46.195Z,14.80
2023-04-10T11:34:15.584Z,14.90
2023-04-10T11:36:44.600Z,15.00
2023-04-10T11:39:17.857Z,15.10
2023-04-10T11:41:50.982Z,15.10
2023-04-10T11:44:31.543Z,15.20
2023-04-10T11:46:59.140Z,15.30
2023-04-10T11:49:36.910Z,15.40
2023-04-10T11:52:04.563Z,15.40
2023-04-10T11:54:32.492Z,15.60
2023-04-10T11:57:05.586Z,15.70
2023-04-10T11:59:34.599Z,15.80
2023-04-10T12:02:15.358Z,15.90
2023-04-10T12:04:45.952Z,16.00
2023-04-10T12:07:13.513Z,16.10
2023-04-10T12:09:41.348Z,16.30
2023-04-10T12:12:09.068Z,16.30
2023-04-10T12:14:42.601Z,16.40
2023-04-10T12:17:12.807Z,16.50
2023-04-10T12:19:41.452Z,16.60
2023-04-10T12:22:12.835Z,16.60
2023-04-10T12:24:44.472Z,16.80
2023-04-10T12:27:27.518Z,16.90
2023-04-10T12:29:57.993Z,17.00
2023-04-10T12:32:27.618Z,17.20
2023-04-10T12:34:57.412Z,17.30
2023-04-10T12:37:26.468Z,17.40
2023-04-10T12:41:02.972Z,17.50
2023-04-10T12:48:08.475Z,17.80
2023-04-10T12:50:50.109Z,17.90
2023-04-10T12:53:17.622Z,18.10
2023-04-10T12:55:59.335Z,18.10
2023-04-10T12:58:31.500Z,18.20
2023-04-10T13:01:07.279Z,18.30
2023-04-10T13:03:36.399Z,18.30
2023-04-10T13:06:08.220Z,18.40
2023-04-10T13:08:36.852Z,18.40
2023-04-10T13:11:04.516Z,18.40
2023-04-10T13:13:35.462Z,18.50
2023-04-10T13:16:03.080Z,18.60
2023-04-10T13:18:30.626Z,18.60
2023-04-10T13:20:58.161Z,18.70
2023-04-10T13:23:25.730Z,18.80
2023-04-10T13:25:53.624Z,18.80
2023-04-10T13:28:21.526Z,18.90
2023-04-10T13:30:49.080Z,19.00
2023-04-10T13:33:16.587Z,19.10
2023-04-10T13:35:44.136Z,19.10
2023-04-10T13:38:11.724Z,19.10
2023-04-10T13:40:39.325Z,19.20
2023-04-10T13:43:06.815Z,19.30
2023-04-10T13:45:34.865Z,19.30
2023-04-10T13:48:02.383Z,19.20
2023-04-10T13:50:29.886Z,19.10
2023-04-10T13:52:57.636Z,19.10
2023-04-10T13:55:25.390Z,19.10
2023-04-10T13:57:52.924Z,19.10
2023-04-10T14:00:20.549Z,19.10
2023-04-10T14:02:48.147Z,19.20
2023-04-10T14:05:15.811Z,19.20
2023-04-10T14:07:43.287Z,19.30
2023-04-10T14:10:11.105Z,19.20
2023-04-10T14:12:38.694Z,19.30
2023-04-10T14:15:07.067Z,19.30
2023-04-10T14:17:34.724Z,19.30
2023-04-10T14:20:02.278Z,19.40
2023-04-10T14:22:31.586Z,19.30
2023-04-10T14:25:11.908Z,19.40
2023-04-10T14:27:41.447Z,19.40
2023-04-10T14:30:10.438Z,19.50
2023-04-10T14:32:41.411Z,19.60
2023-04-10T14:35:09.702Z,19.60
2023-04-10T14:37:37.544Z,19.60
2023-04-10T14:40:05.971Z,19.60
2023-04-10T14:42:33.465Z,19.70
2023-04-10T14:45:00.996Z,19.70
2023-04-10T14:47:28.615Z,19.70
2023-04-10T14:49:56.161Z,19.60
2023-04-10T14:52:23.972Z,19.70
2023-04-10T14:54:51.470Z,19.70
2023-04-10T14:57:18.926Z,19.70
2023-04-10T14:59:46.403Z,19.60
2023-04-10T15:02:13.912Z,19.60
2023-04-10T15:04:42.431Z,19.50
2023-04-10T15:07:09.912Z,19.60
2023-04-10T15:09:37.787Z,19.70
2023-04-10T15:12:05.420Z,19.60
2023-04-10T15:14:33.305Z,19.60
2023-04-10T15:17:00.894Z,19.50
2023-04-10T15:19:28.558Z,19.60
2023-04-10T15:21:56.033Z,19.60
2023-04-10T15:24:23.546Z,19.60
2023-04-10T15:26:51.114Z,19.50
2023-04-10T15:29:18.795Z,19.50
2023-04-10T15:31:46.309Z,19.60
2023-04-10T15:34:13.789Z,19.50
2023-04-10T15:36:41.274Z,19.50
2023-04-10T15:39:08.870Z,19.40
2023-04-10T15:41:36.443Z,19.30
2023-04-10T15:44:04.392Z,19.30
2023-04-10T15:46:33.088Z,19.20
2023-04-10T15:49:01.053Z,19.20
2023-04-10T15:51:28.625Z,19.10
2023-04-10T15:53:56.296Z,19.10
2023-04-10T15:56:23.890Z,19.00
2023-04-10T15:58:51.518Z,19.00
2023-04-10T16:01:19.103Z,19.00
2023-04-10T16:03:46.817Z,18.90
2023-04-10T16:06:14.805Z,18.90
2023-04-10T16:08:42.390Z,18.80
2023-04-10T16:11:09.903Z,18.80
2023-04-10T16:13:39.840Z,18.70
2023-04-10T16:16:15.437Z,18.60
2023-04-10T16:18:46.452Z,18.60
2023-04-10T16:21:14.868Z,18.60
2023-04-10T16:23:42.274Z,18.50
2023-04-10T16:26:09.580Z,18.50
2023-04-10T16:28:37.104Z,18.50
2023-04-10T16:31:04.936Z,18.50
2023-04-10T16:33:32.563Z,18.50
2023-04-10T16:36:02.928Z,18.40
2023-04-10T16:38:31.590Z,18.40
2023-04-10T16:41:03.107Z,18.40
2023-04-10T16:43:31.189Z,18.30
2023-04-10T16:45:59.845Z,18.20
2023-04-10T16:48:27.508Z,18.20
2023-04-10T16:50:55.063Z,18.20
2023-04-10T16:53:22.565Z,18.10
2023-04-10T16:56:01.933Z,18.00
2023-04-10T16:58:31.213Z,18.00
2023-04-10T17:00:58.809Z,17.80
2023-04-10T17:03:26.428Z,17.80
2023-04-10T17:05:53.949Z,17.70
2023-04-10T17:08:21.494Z,17.70
2023-04-10T17:10:49.008Z,17.50
2023-04-10T17:13:17.419Z,17.50
2023-04-10T17:15:46.146Z,17.50
2023-04-10T17:18:15.055Z,17.40
2023-04-10T17:20:42.597Z,17.40
2023-04-10T17:23:11.234Z,17.30
2023-04-10T17:25:42.092Z,17.20
2023-04-10T17:28:09.592Z,17.20
2023-04-10T17:30:37.244Z,17.10
2023-04-10T17:33:04.897Z,17.10
2023-04-10T17:35:32.414Z,17.00
2023-04-10T17:37:59.906Z,17.00
2023-04-10T17:40:27.450Z,17.00
2023-04-10T17:42:54.925Z,16.90
2023-04-10T17:45:22.445Z,16.90
2023-04-10T17:47:49.939Z,16.80
2023-04-10T17:50:17.477Z,16.80
2023-04-10T17:52:44.944Z,16.70
2023-04-10T17:55:12.567Z,16.70
2023-04-10T17:57:40.134Z,16.70
2023-04-10T18:00:09.416Z,16.60
2023-04-10T18:02:37.321Z,16.70
2023-04-10T18:05:06.427Z,16.60
2023-04-10T18:07:33.879Z,16.60
2023-04-10T18:10:01.635Z,16.60
2023-04-10T18:12:29.135Z,16.50
2023-04-10T18:14:56.617Z,16.50
2023-04-10T18:17:24.131Z,16.40
2023-04-10T18:19:51.765Z,16.40
2023-04-10T18:22:19.665Z,16.30
2023-04-10T18:24:50.209Z,16.30
2023-04-10T18:27:17.677Z,16.20
2023-04-10T18:29:45.732Z,16.10
2023-04-10T18:32:13.263Z,16.00
2023-04-10T18:34:40.785Z,16.00
2023-04-10T18:37:09.860Z,16.00
2023-04-10T18:39:38.202Z,16.00
2023-04-10T18:42:10.471Z,15.90
2023-04-10T18:44:38.001Z,16.00
2023-04-10T18:47:05.608Z,15.90
2023-04-10T18:49:33.242Z,15.90
2023-04-10T18:52:00.902Z,16.00
2023-04-10T18:54:29.768Z,15.90
2023-04-10T18:56:57.355Z,15.90
2023-04-10T18:59:24.908Z,15.90
2023-04-10T19:01:52.863Z,15.90
2023-04-10T19:04:20.665Z,15.90
2023-04-10T19:06:48.322Z,15.80
2023-04-10T19:09:15.875Z,15.80
2023-04-10T19:11:43.334Z,15.80
2023-04-10T19:14:10.965Z,15.80
2023-04-10T19:16:38.488Z,15.80
2023-04-10T19:19:06.000Z,15.80
2023-04-10T19:21:34.376Z,15.80
2023-04-10T19:24:02.171Z,15.80
2023-04-10T19:26:29.677Z,15.70
2023-04-10T19:28:57.514Z,15.70
2023-04-10T19:31:27.530Z,15.70
2023-04-10T19:33:55.998Z,15.70
2023-04-10T19:36:23.515Z,15.70
2023-04-10T19:38:51.326Z,15.70
2023-04-10T19:41:18.842Z,15.70
2023-04-10T19:43:46.433Z,15.60
2023-04-10T19:46:21.211Z,15.60
2023-04-10T19:48:49.121Z,15.60
2023-04-10T19:51:16.614Z,15.50
2023-04-10T19:53:44.227Z,15.50
2023-04-10T19:56:11.729Z,15.50
2023-04-10T19:58:40.982Z,15.50
2023-04-10T20:01:24.183Z,15.50
2023-04-10T20:03:51.947Z,15.50
2023-04-10T20:06:21.393Z,15.50
2023-04-10T20:08:48.877Z,15.50
2023-04-10T20:11:16.721Z,15.40
2023-04-10T20:13:44.218Z,15.40
2023-04-10T20:16:12.061Z,15.40
2023-04-10T20:18:40.223Z,15.40
2023-04-10T20:21:08.155Z,15.40
2023-04-10T20:23:36.634Z,15.30
2023-04-10T20:26:04.209Z,15.30
2023-04-10T20:28:31.725Z,15.30
2023-04-10T20:30:59.238Z,15.30
2023-04-10T20:33:26.712Z,15.30
2023-04-10T20:35:54.276Z,15.30
2023-04-10T20:38:21.822Z,15.30
2023-04-10T20:40:49.295Z,15.20
2023-04-10T20:43:18.541Z,15.20
2023-04-10T20:45:46.026Z,15.20
2023-04-10T20:48:13.746Z,15.30
2023-04-10T20:50:46.575Z,15.20
2023-04-10T20:53:14.068Z,15.20
2023-04-10T20:55:41.612Z,15.20
2023-04-10T20:58:09.086Z,15.20
2023-04-10T21:00:37.350Z,15.20
2023-04-10T21:03:05.552Z,15.20
2023-04-10T21:05:33.126Z,15.20
2023-04-10T21:08:00.666Z,15.30
2023-04-10T21:10:28.171Z,15.20
2023-04-10T21:12:55.644Z,15.20
2023-04-10T21:15:23.137Z,15.20
2023-04-10T21:17:50.685Z,15.20
2023-04-10T21:20:18.381Z,15.10
2023-04-10T21:22:45.874Z,15.10
2023-04-10T21:25:13.420Z,15.10
2023-04-10T21:27:40.943Z,15.00
2023-04-10T21:30:09.087Z,15.00
2023-04-10T21:32:36.639Z,15.00
2023-04-10T21:35:04.448Z,15.00
2023-04-10T21:37:31.919Z,15.00
2023-04-10T21:39:59.515Z,15.00
2023-04-10T21:42:26.995Z,15.00
2023-04-10T21:44:54.796Z,15.00
2023-04-10T21:47:22.274Z,15.00
2023-04-10T21:49:49.766Z,14.90
2023-04-10T21:52:17.247Z,15.00
2023-04-10T21:54:44.762Z,14.90
2023-04-10T21:57:12.245Z,14.90
2023-04-10T21:59:39.768Z,14.90
2023-04-10T22:02:07.382Z,14.90
2023-04-10T22:04:38.902Z,14.90
2023-04-10T22:07:12.182Z,14.90
2023-04-10T22:09:39.717Z,14.90
2023-04-10T22:12:07.446Z,14.90
2023-04-10T22:14:35.022Z,14.90
2023-04-10T22:17:02.574Z,14.90
2023-04-10T22:19:30.243Z,14.90
2023-04-10T22:21:57.741Z,14.90
2023-04-10T22:24:25.345Z,14.90
2023-04-10T22:26:52.892Z,14.80
2023-04-10T22:29:20.368Z,14.90
2023-04-10T22:31:47.878Z,14.90
2023-04-10T22:34:15.371Z,14.80
2023-04-10T22:36:42.870Z,14.80
2023-04-10T22:39:10.953Z,14.80
2023-04-10T22:41:38.569Z,14.80
2023-04-10T22:44:07.296Z,14.80
2023-04-10T22:46:38.182Z,14.70
2023-04-10T22:49:06.429Z,14.70
2023-04-10T22:51:33.958Z,14.70
2023-04-10T22:54:01.528Z,14.70
2023-04-10T22:56:29.368Z,14.70
2023-04-10T22:58:56.994Z,14.70
2023-04-10T23:01:24.722Z,14.60
2023-04-10T23:03:53.710Z,14.60
2023-04-10T23:06:21.516Z,14.60
2023-04-10T23:08:49.006Z,14.60
2023-04-10T23:11:16.608Z,14.60
2023-04-10T23:13:44.163Z,14.60
2023-04-10T23:16:11.977Z,14.60
2023-04-10T23:18:39.492Z,14.60
2023-04-10T23:21:07.525Z,14.60
2023-04-10T23:23:35.312Z,14.50
2023-04-10T23:26:02.960Z,14.50
2023-04-10T23:28:30.460Z,14.50
2023-04-10T23:30:58.006Z,14.50
2023-04-10T23:33:25.566Z,14.50
2023-04-10T23:35:53.128Z,14.50
2023-04-10T23:38:21.207Z,14.50
2023-04-10T23:40:48.738Z,14.50
2023-04-10T23:43:16.244Z,14.60
2023-04-10T23:45:43.723Z,14.60
2023-04-10T23:48:11.956Z,14.60
2023-04-10T23:50:39.482Z,14.60
2023-04-10T23:53:09.799Z,14.60
2023-04-10T23:55:39.323Z,14.60
2023-04-10T23:58:07.091Z,14.50
